Monte Aprazivel, Brazil
Current Conditions -  °F | °C
As of 10:00 PM on Sunday 21 Dec 2014 (Local Time) from SBSR Reporting Station
Overcast Overcast  
Wind Chill: 73°   Ceiling: 1000
Heat Index: 73°   Visibility: 6mi
Dew Point: 70°   Wind: 6mph
Humidity: 88%   Direction: 90°E
Pressure: 29.91"   Gusts: NA
Location:  20.78°S, 49.71°W
Report Text: SBSR 220000Z 09005KT 9999 BKN010 BKN015 OVC070 23/21 Q1013
Loading
Personal Weather Stations






























Interactive Weather Map New forecast layout! Learn more

10-Day Weather Forecast

Advertisements
Track Severe Weather on mobile